KMSV

Sullivan County International Airport

Monticello, New York, USA
METAR KMSV 230556Z AUTO 08004KT 10SM OVC070 03/01 A3011 RMK AO2 SLP205 T00330011 10039 20017 56010
Observed Flight Rules
Oct-23 @ 05:56 UTC (19 minutes ago) Visual Flight Rules
Wind Visibility Clouds
80° at 4 knots 10 miles
  • Overcast at 7,000' AGL
Temperatures Readings
Current 3°C / 37°F
Dewpoint 1°C / 34°F
Humidity 87%
Altimeter 30.11" Hg
Pressure 1020.5 hPa
Elevation 428
METAR KMSV 230556Z AUTO 08004KT 10SM OVC070 03/01 A3011 RMK AO2 SLP205 T00330011 10039 20017 56010
Observed Flight Rules
Oct-23 @ 05:56 UTC
(19 minutes ago)
VFR
Wind Visibility
80° at 4 knots 10 miles
Clouds
  • Overcast at 7,000' AGL
Temperature Dewpoint
3°C / 37°F 1°C / 34°F
Humidity Altimeter Pressure
87% 30.11" Hg 1020.5 hPa